createdAt,value
2022-10-31T00:01:39.667Z,7.00
2022-10-31T00:04:07.304Z,9.50
2022-10-31T00:06:34.714Z,6.37
2022-10-31T00:09:04.576Z,9.87
2022-10-31T00:11:32.246Z,8.33
2022-10-31T00:14:00.369Z,6.63
2022-10-31T00:16:29.605Z,7.17
2022-10-31T00:19:07.083Z,8.57
2022-10-31T00:21:35.972Z,6.27
2022-10-31T00:24:03.980Z,7.47
2022-10-31T00:26:32.606Z,7.40
2022-10-31T00:29:01.450Z,7.47
2022-10-31T00:31:29.315Z,5.90
2022-10-31T00:33:57.651Z,4.67
2022-10-31T00:36:24.824Z,6.27
2022-10-31T00:38:51.899Z,4.43
2022-10-31T00:41:19.553Z,6.40
2022-10-31T00:43:47.377Z,5.63
2022-10-31T00:46:15.227Z,3.83
2022-10-31T00:48:43.102Z,6.87
2022-10-31T00:51:11.488Z,8.10
2022-10-31T00:53:38.665Z,4.23
2022-10-31T00:56:06.626Z,4.00
2022-10-31T00:58:33.922Z,7.10
2022-10-31T01:01:01.292Z,4.03
2022-10-31T01:03:33.673Z,7.23
2022-10-31T01:06:10.973Z,9.53
2022-10-31T01:08:39.961Z,4.70
2022-10-31T01:11:22.199Z,6.03
2022-10-31T01:13:53.537Z,9.13
2022-10-31T01:16:24.334Z,12.73
2022-10-31T01:18:53.378Z,4.77
2022-10-31T01:21:27.722Z,5.50
2022-10-31T01:23:58.875Z,8.33
2022-10-31T01:26:41.820Z,8.57
2022-10-31T01:29:09.626Z,7.80
2022-10-31T01:31:40.490Z,10.43
2022-10-31T01:34:10.149Z,12.73
2022-10-31T01:36:39.792Z,13.00
2022-10-31T01:39:14.409Z,12.83
2022-10-31T01:41:46.640Z,8.47
2022-10-31T01:44:16.577Z,9.47
2022-10-31T01:47:11.122Z,9.77
2022-10-31T01:49:49.498Z,8.50
2022-10-31T01:52:31.003Z,8.30
2022-10-31T01:55:06.799Z,7.93
2022-10-31T01:57:36.439Z,7.93
2022-10-31T02:00:10.598Z,8.90
2022-10-31T02:02:38.072Z,10.17
2022-10-31T02:05:13.323Z,6.20
2022-10-31T02:08:09.547Z,9.27
2022-10-31T02:10:38.574Z,5.00
2022-10-31T02:13:09.411Z,7.63
2022-10-31T02:15:40.146Z,8.23
2022-10-31T02:18:09.355Z,6.03
2022-10-31T02:20:42.667Z,8.97
2022-10-31T02:23:50.442Z,15.47
2022-10-31T02:26:36.047Z,8.63
2022-10-31T02:29:39.256Z,8.40
2022-10-31T02:32:46.510Z,8.33
2022-10-31T02:35:22.918Z,3.83
2022-10-31T02:38:21.234Z,5.70
2022-10-31T02:41:20.074Z,12.87
2022-10-31T02:44:21.147Z,8.00
2022-10-31T02:47:02.708Z,4.53
2022-10-31T02:49:44.100Z,8.27
2022-10-31T02:52:24.233Z,8.03
2022-10-31T02:54:51.748Z,6.17
2022-10-31T02:57:30.039Z,10.20
2022-10-31T03:00:08.594Z,5.83
2022-10-31T03:03:20.519Z,9.90
2022-10-31T03:06:22.309Z,6.73
2022-10-31T03:09:09.840Z,5.10
2022-10-31T03:12:12.780Z,6.57
2022-10-31T03:15:09.185Z,6.27
2022-10-31T03:17:54.013Z,4.77
2022-10-31T03:20:29.999Z,4.77
2022-10-31T03:22:59.196Z,6.77
2022-10-31T03:25:28.679Z,6.43
2022-10-31T03:28:00.041Z,8.40
2022-10-31T03:30:28.058Z,9.70
2022-10-31T03:33:00.763Z,10.10
2022-10-31T03:35:31.425Z,7.17
2022-10-31T03:38:06.783Z,4.13
2022-10-31T03:40:39.286Z,5.57
2022-10-31T03:43:15.392Z,3.33
2022-10-31T03:45:47.671Z,7.57
2022-10-31T03:48:18.803Z,5.23
2022-10-31T03:51:07.681Z,7.70
2022-10-31T03:54:03.027Z,8.03
2022-10-31T03:56:49.378Z,9.77
2022-10-31T03:59:34.414Z,3.87
2022-10-31T04:02:09.191Z,7.53
2022-10-31T04:04:38.325Z,4.43
2022-10-31T04:07:07.820Z,6.60
2022-10-31T04:09:40.885Z,6.50
2022-10-31T04:12:12.442Z,6.33
2022-10-31T04:14:43.939Z,7.20
2022-10-31T04:17:18.673Z,5.63
2022-10-31T04:19:46.341Z,4.73
2022-10-31T04:22:14.247Z,5.40
2022-10-31T04:24:42.272Z,5.97
2022-10-31T04:27:09.449Z,7.20
2022-10-31T04:29:36.586Z,12.67
2022-10-31T04:32:03.850Z,9.53
2022-10-31T04:34:30.949Z,5.63
2022-10-31T04:36:58.251Z,10.40
2022-10-31T04:39:26.716Z,7.87
2022-10-31T04:41:54.199Z,10.77
2022-10-31T04:44:21.452Z,11.47
2022-10-31T04:46:48.843Z,9.97
2022-10-31T04:49:15.945Z,12.77
2022-10-31T04:51:43.019Z,7.67
2022-10-31T04:54:10.193Z,10.43
2022-10-31T04:56:37.369Z,18.03
2022-10-31T04:59:04.505Z,11.73
2022-10-31T05:01:31.861Z,13.50
2022-10-31T05:03:59.086Z,16.63
2022-10-31T05:06:26.242Z,18.10
2022-10-31T05:08:53.372Z,20.73
2022-10-31T05:11:20.474Z,12.70
2022-10-31T05:13:47.768Z,15.07
2022-10-31T05:16:15.111Z,12.13
2022-10-31T05:18:42.498Z,17.60
2022-10-31T05:21:09.685Z,12.00
2022-10-31T05:23:36.775Z,12.60
2022-10-31T05:26:04.334Z,17.10
2022-10-31T05:28:31.480Z,17.33
2022-10-31T05:30:58.652Z,16.83
2022-10-31T05:33:25.847Z,12.60
2022-10-31T05:35:53.036Z,18.60
2022-10-31T05:38:20.279Z,17.77
2022-10-31T05:40:47.378Z,13.70
2022-10-31T05:43:14.878Z,14.50
2022-10-31T05:45:41.949Z,14.23
2022-10-31T05:48:09.885Z,14.53
2022-10-31T05:50:37.010Z,15.20
2022-10-31T05:53:06.389Z,10.73
2022-10-31T05:55:34.248Z,11.27
2022-10-31T05:58:02.003Z,15.23
2022-10-31T06:00:29.708Z,16.07
2022-10-31T06:03:05.517Z,14.77
2022-10-31T06:05:33.390Z,7.70
2022-10-31T06:08:01.930Z,12.43
2022-10-31T06:10:29.797Z,12.30
2022-10-31T06:12:56.932Z,12.80
2022-10-31T06:15:24.946Z,11.93
2022-10-31T06:18:06.938Z,12.17
2022-10-31T06:20:35.255Z,9.73
2022-10-31T06:23:03.761Z,11.33
2022-10-31T06:25:31.267Z,13.37
2022-10-31T06:27:58.558Z,15.07
2022-10-31T06:30:26.583Z,16.77
2022-10-31T06:32:54.024Z,18.00
2022-10-31T06:35:21.466Z,15.77
2022-10-31T06:37:55.756Z,23.07
2022-10-31T06:40:25.264Z,18.77
2022-10-31T06:43:02.496Z,23.73
2022-10-31T06:45:30.333Z,18.33
2022-10-31T06:50:45.839Z,15.13
2022-10-31T06:53:13.268Z,22.07
2022-10-31T06:55:40.977Z,19.43
2022-10-31T06:58:10.740Z,12.40
2022-10-31T07:00:38.296Z,15.27
2022-10-31T07:03:11.586Z,23.40
2022-10-31T07:05:39.126Z,16.73
2022-10-31T07:08:10.527Z,20.00
2022-10-31T07:10:41.002Z,13.17
2022-10-31T07:13:14.263Z,15.37
2022-10-31T07:15:44.096Z,15.00
2022-10-31T07:18:13.600Z,17.67
2022-10-31T07:20:40.867Z,15.10
2022-10-31T07:23:10.539Z,14.43
2022-10-31T07:25:39.116Z,17.37
2022-10-31T07:28:07.014Z,15.87
2022-10-31T07:30:34.503Z,15.37
2022-10-31T07:33:01.811Z,13.13
2022-10-31T07:35:30.551Z,16.33
2022-10-31T07:37:58.694Z,16.87
2022-10-31T07:40:26.545Z,12.80
2022-10-31T07:42:56.082Z,16.40
2022-10-31T07:45:26.941Z,19.43
2022-10-31T07:47:54.865Z,19.40
2022-10-31T07:50:32.105Z,18.43
2022-10-31T07:53:05.889Z,16.43
2022-10-31T07:55:34.086Z,16.20
2022-10-31T07:58:20.613Z,13.17
2022-10-31T08:00:49.070Z,12.27
2022-10-31T08:03:19.999Z,19.97
2022-10-31T08:05:47.514Z,15.73
2022-10-31T08:08:15.710Z,16.87
2022-10-31T08:10:43.285Z,13.17
2022-10-31T08:13:15.184Z,10.80
2022-10-31T08:15:42.790Z,11.83
2022-10-31T08:18:15.729Z,10.43
2022-10-31T08:20:44.608Z,14.23
2022-10-31T08:23:13.545Z,15.83
2022-10-31T08:25:41.426Z,12.53
2022-10-31T08:28:11.301Z,12.17
2022-10-31T08:30:39.337Z,9.07
2022-10-31T08:33:18.497Z,9.30
2022-10-31T08:35:45.979Z,11.40
2022-10-31T08:38:14.322Z,8.43
2022-10-31T08:40:42.316Z,8.70
2022-10-31T08:43:18.169Z,10.87
2022-10-31T08:45:49.539Z,13.83
2022-10-31T08:48:18.387Z,11.87
2022-10-31T08:50:46.942Z,7.67
2022-10-31T08:53:16.922Z,7.77
2022-10-31T08:55:46.007Z,6.43
2022-10-31T08:58:19.593Z,7.53
2022-10-31T09:00:49.271Z,8.57
2022-10-31T09:03:26.135Z,9.83
2022-10-31T09:05:58.609Z,9.40
2022-10-31T09:08:26.600Z,7.60
2022-10-31T09:10:57.717Z,6.53
2022-10-31T09:13:27.967Z,6.30
2022-10-31T09:15:58.091Z,8.97
2022-10-31T09:18:26.096Z,7.67
2022-10-31T09:20:53.251Z,9.30
2022-10-31T09:23:23.789Z,8.80
2022-10-31T09:25:53.708Z,9.67
2022-10-31T09:28:24.552Z,9.23
2022-10-31T09:30:54.367Z,7.20
2022-10-31T09:33:22.345Z,8.43
2022-10-31T09:35:49.627Z,8.83
2022-10-31T09:38:22.139Z,8.70
2022-10-31T09:41:26.462Z,6.23
2022-10-31T09:44:38.333Z,9.03
2022-10-31T09:47:11.309Z,5.13
2022-10-31T09:50:19.227Z,10.20
2022-10-31T09:53:03.709Z,12.03
2022-10-31T09:55:45.586Z,19.73
2022-10-31T09:58:29.787Z,7.63
2022-10-31T10:01:02.889Z,4.47
2022-10-31T10:03:49.715Z,7.27
2022-10-31T10:06:33.668Z,11.50
2022-10-31T10:09:02.557Z,5.97
2022-10-31T10:12:15.407Z,7.57
2022-10-31T10:15:19.518Z,10.30
2022-10-31T10:18:24.236Z,6.10
2022-10-31T10:21:35.920Z,15.03
2022-10-31T10:24:23.715Z,5.97
2022-10-31T10:27:17.998Z,10.10
2022-10-31T10:30:23.269Z,6.43
2022-10-31T10:33:03.544Z,5.33
2022-10-31T10:35:34.668Z,7.97
2022-10-31T10:38:21.109Z,8.27
2022-10-31T10:40:49.113Z,10.53
2022-10-31T10:43:36.403Z,7.63
2022-10-31T10:46:44.667Z,7.40
2022-10-31T10:49:43.059Z,7.20
2022-10-31T10:52:54.232Z,3.63
2022-10-31T10:55:30.281Z,10.80
2022-10-31T10:58:04.702Z,9.07
2022-10-31T11:00:47.925Z,7.30
2022-10-31T11:03:17.952Z,11.43
2022-10-31T11:05:59.255Z,5.57
2022-10-31T11:08:37.370Z,7.53
2022-10-31T11:11:12.307Z,4.50
2022-10-31T11:13:44.895Z,6.07
2022-10-31T11:16:39.542Z,8.20
2022-10-31T11:19:17.660Z,10.70
2022-10-31T11:21:49.843Z,7.53
2022-10-31T11:24:26.109Z,7.97
2022-10-31T11:27:12.749Z,10.03
2022-10-31T11:29:40.017Z,8.13
2022-10-31T11:32:22.044Z,10.03
2022-10-31T11:35:00.305Z,9.37
2022-10-31T11:37:33.106Z,9.47
2022-10-31T11:40:06.351Z,6.77
2022-10-31T11:42:43.369Z,7.53
2022-10-31T11:45:20.669Z,6.13
2022-10-31T11:47:58.239Z,6.70
2022-10-31T11:50:35.625Z,6.40
2022-10-31T11:53:04.588Z,8.95
2022-10-31T11:55:39.248Z,6.40
2022-10-31T11:58:21.617Z,11.10
2022-10-31T12:00:56.299Z,12.95
2022-10-31T12:03:23.480Z,6.38
2022-10-31T12:06:20.562Z,8.82
2022-10-31T12:08:48.143Z,8.50
2022-10-31T12:11:50.730Z,5.53
2022-10-31T12:15:02.225Z,7.95
2022-10-31T12:17:47.368Z,4.87
2022-10-31T12:21:10.074Z,8.60
2022-10-31T12:24:21.796Z,7.10
2022-10-31T12:26:54.949Z,7.07
2022-10-31T12:29:36.291Z,9.65
2022-10-31T12:32:30.653Z,7.38
2022-10-31T12:35:41.992Z,6.70
2022-10-31T12:38:36.628Z,4.47
2022-10-31T12:41:42.582Z,8.27
2022-10-31T12:44:37.612Z,11.37
2022-10-31T12:47:38.863Z,4.60
2022-10-31T12:50:52.922Z,9.03
2022-10-31T12:53:35.026Z,9.30
2022-10-31T12:56:31.942Z,6.80
2022-10-31T12:59:25.402Z,10.10
2022-10-31T13:02:04.689Z,8.50
2022-10-31T13:05:11.444Z,5.03
2022-10-31T13:08:10.278Z,9.13
2022-10-31T13:10:57.038Z,7.33
2022-10-31T13:13:42.443Z,9.87
2022-10-31T13:16:23.727Z,8.13
2022-10-31T13:19:01.395Z,7.70
2022-10-31T13:22:05.545Z,5.60
2022-10-31T13:25:12.080Z,8.63
2022-10-31T13:28:03.749Z,7.83
2022-10-31T13:30:37.523Z,6.80
2022-10-31T13:33:40.796Z,6.23
2022-10-31T13:36:40.490Z,9.07
2022-10-31T13:39:44.594Z,12.20
2022-10-31T13:42:49.705Z,13.70
2022-10-31T13:45:21.832Z,11.93
2022-10-31T13:48:20.980Z,6.20
2022-10-31T13:51:01.960Z,6.30
2022-10-31T13:53:41.288Z,11.23
2022-10-31T13:56:27.841Z,9.97
2022-10-31T13:59:17.333Z,18.90
2022-10-31T14:01:57.526Z,13.97
2022-10-31T14:04:29.318Z,12.13
2022-10-31T14:07:07.479Z,10.03
2022-10-31T14:09:49.363Z,7.37
2022-10-31T14:12:41.399Z,14.00
2022-10-31T14:15:25.402Z,9.70
2022-10-31T14:18:20.167Z,7.27
2022-10-31T14:20:47.371Z,13.93
2022-10-31T14:23:40.520Z,11.93
2022-10-31T14:26:26.711Z,9.10
2022-10-31T14:29:01.362Z,44.17
2022-10-31T14:31:42.273Z,25.80
2022-10-31T14:34:38.398Z,13.83
2022-10-31T14:37:43.343Z,12.83
2022-10-31T14:40:27.539Z,10.70
2022-10-31T14:43:13.180Z,9.67
2022-10-31T14:46:29.121Z,12.40
2022-10-31T14:49:35.316Z,13.33
2022-10-31T14:52:08.091Z,12.70
2022-10-31T14:54:48.805Z,57.70
2022-10-31T14:57:23.449Z,14.87
2022-10-31T14:59:59.180Z,9.90
2022-10-31T15:03:13.546Z,7.17
2022-10-31T15:05:52.911Z,22.07
2022-10-31T15:08:35.599Z,7.50
2022-10-31T15:11:25.449Z,12.63
2022-10-31T15:13:57.894Z,13.10
2022-10-31T15:16:40.745Z,14.10
2022-10-31T15:19:16.616Z,19.63
2022-10-31T15:21:46.687Z,16.80
2022-10-31T15:24:17.271Z,14.97
2022-10-31T15:26:50.256Z,16.50
2022-10-31T15:29:20.923Z,14.60
2022-10-31T15:31:54.254Z,13.23
2022-10-31T15:34:44.070Z,7.03
2022-10-31T15:37:17.890Z,7.63
2022-10-31T15:39:47.370Z,8.33
2022-10-31T15:42:43.759Z,9.00
2022-10-31T15:45:10.914Z,8.90
2022-10-31T15:47:38.933Z,9.67
2022-10-31T15:50:21.791Z,8.50
2022-10-31T15:52:50.252Z,12.57
2022-10-31T15:55:26.695Z,11.07
2022-10-31T15:58:00.136Z,11.00
2022-10-31T16:00:34.473Z,8.30
2022-10-31T16:03:07.597Z,13.40
2022-10-31T16:05:53.116Z,9.33
2022-10-31T16:08:33.916Z,7.80
2022-10-31T16:11:38.002Z,9.83
2022-10-31T16:14:25.273Z,10.03
2022-10-31T16:17:03.049Z,10.93
2022-10-31T16:19:44.186Z,16.13
2022-10-31T16:22:21.960Z,9.00
2022-10-31T16:24:52.256Z,8.30
2022-10-31T16:27:25.820Z,14.37
2022-10-31T16:29:53.598Z,16.13
2022-10-31T16:32:38.523Z,10.03
2022-10-31T16:35:35.990Z,13.70
2022-10-31T16:38:05.360Z,21.57
2022-10-31T16:40:33.480Z,19.07
2022-10-31T16:43:02.270Z,27.10
2022-10-31T16:45:34.064Z,22.67
2022-10-31T16:48:12.112Z,16.37
2022-10-31T16:50:39.739Z,12.73
2022-10-31T16:53:14.789Z,11.37
2022-10-31T16:55:56.140Z,8.90
2022-10-31T16:58:36.512Z,9.13
2022-10-31T17:01:07.885Z,14.20
2022-10-31T17:03:36.312Z,12.80
2022-10-31T17:06:03.792Z,12.37
2022-10-31T17:08:31.067Z,17.40
2022-10-31T17:11:00.699Z,16.60
2022-10-31T17:13:31.909Z,16.97
2022-10-31T17:16:02.978Z,14.80
2022-10-31T17:18:30.696Z,13.17
2022-10-31T17:21:05.629Z,10.20
2022-10-31T17:23:33.682Z,11.43
2022-10-31T17:26:03.679Z,8.97
2022-10-31T17:28:44.548Z,9.50
2022-10-31T17:31:27.174Z,13.07
2022-10-31T17:34:02.042Z,10.43
2022-10-31T17:36:32.522Z,9.37
2022-10-31T17:39:00.312Z,7.10
2022-10-31T17:41:27.537Z,10.37
2022-10-31T17:43:59.612Z,7.57
2022-10-31T17:46:27.191Z,10.90
2022-10-31T17:48:54.408Z,10.47
2022-10-31T17:51:21.627Z,16.53
2022-10-31T17:53:48.894Z,13.00
2022-10-31T17:56:16.226Z,7.63
2022-10-31T17:58:43.376Z,7.60
2022-10-31T18:01:14.345Z,6.57
2022-10-31T18:03:42.162Z,10.20
2022-10-31T18:06:11.127Z,8.40
2022-10-31T18:08:41.200Z,8.63
2022-10-31T18:11:16.001Z,10.90
2022-10-31T18:13:43.209Z,11.73
2022-10-31T18:16:15.332Z,13.67
2022-10-31T18:18:42.874Z,12.37
2022-10-31T18:21:10.501Z,9.57
2022-10-31T18:23:38.022Z,14.13
2022-10-31T18:26:05.347Z,12.87
2022-10-31T18:28:32.571Z,11.50
2022-10-31T18:31:00.460Z,8.27
2022-10-31T18:33:28.228Z,9.40
2022-10-31T18:35:56.000Z,9.20
2022-10-31T18:38:23.583Z,11.07
2022-10-31T18:40:52.033Z,9.83
2022-10-31T18:43:19.210Z,12.50
2022-10-31T18:45:48.585Z,13.00
2022-10-31T18:48:17.658Z,12.20
2022-10-31T18:50:45.262Z,11.70
2022-10-31T18:53:12.530Z,32.47
2022-10-31T18:55:45.731Z,42.40
2022-10-31T18:58:17.748Z,36.93
2022-10-31T19:00:45.350Z,42.73
2022-10-31T19:03:13.912Z,39.73
2022-10-31T19:05:41.331Z,44.87
2022-10-31T19:08:08.591Z,34.87
2022-10-31T19:10:38.587Z,35.47
2022-10-31T19:13:06.696Z,31.27
2022-10-31T19:15:35.564Z,27.23
2022-10-31T19:18:03.350Z,29.23
2022-10-31T19:20:31.767Z,25.47
2022-10-31T19:22:59.287Z,24.80
2022-10-31T19:25:26.754Z,24.60
2022-10-31T19:27:54.238Z,20.40
2022-10-31T19:30:21.768Z,26.77
2022-10-31T19:32:48.974Z,19.77
2022-10-31T19:35:16.294Z,19.00
2022-10-31T19:37:43.447Z,28.93
2022-10-31T19:40:11.666Z,22.43
2022-10-31T19:42:38.833Z,22.70
2022-10-31T19:45:06.866Z,22.80
2022-10-31T19:47:34.209Z,22.10
2022-10-31T19:50:02.513Z,19.40
2022-10-31T19:52:29.816Z,18.70
2022-10-31T19:54:57.013Z,22.27
2022-10-31T19:57:41.959Z,15.73
2022-10-31T20:00:12.317Z,18.40
2022-10-31T20:02:39.565Z,18.83
2022-10-31T20:05:07.268Z,16.37
2022-10-31T20:07:34.810Z,17.97
2022-10-31T20:10:01.993Z,19.53
2022-10-31T20:12:29.605Z,19.80
2022-10-31T20:14:56.801Z,20.27
2022-10-31T20:17:23.968Z,19.20
2022-10-31T20:19:51.199Z,16.63
2022-10-31T20:22:18.653Z,17.17
2022-10-31T20:24:46.160Z,13.47
2022-10-31T20:27:13.399Z,15.17
2022-10-31T20:29:40.705Z,13.13
2022-10-31T20:32:08.049Z,14.97
2022-10-31T20:34:35.274Z,14.13
2022-10-31T20:37:02.486Z,14.03
2022-10-31T20:39:29.702Z,14.77
2022-10-31T20:41:56.903Z,19.50
2022-10-31T20:44:24.102Z,13.53
2022-10-31T20:46:51.265Z,15.20
2022-10-31T20:49:18.455Z,19.83
2022-10-31T20:51:45.782Z,13.07
2022-10-31T20:54:14.388Z,13.90
2022-10-31T20:56:41.605Z,11.13
2022-10-31T20:59:08.915Z,13.40
2022-10-31T21:01:36.320Z,13.47
2022-10-31T21:04:05.336Z,14.03
2022-10-31T21:06:32.680Z,10.87
2022-10-31T21:08:59.950Z,11.23
2022-10-31T21:11:29.057Z,15.43
2022-10-31T21:13:56.569Z,13.40
2022-10-31T21:16:32.821Z,12.23
2022-10-31T21:19:01.215Z,11.10
2022-10-31T21:21:36.868Z,12.77
2022-10-31T21:24:13.987Z,14.47
2022-10-31T21:26:46.068Z,12.80
2022-10-31T21:29:15.072Z,18.53
2022-10-31T21:31:43.479Z,32.50
2022-10-31T21:34:11.864Z,21.77
2022-10-31T21:36:39.800Z,23.00
2022-10-31T21:39:08.745Z,22.63
2022-10-31T21:41:36.579Z,22.53
2022-10-31T21:44:04.516Z,17.87
2022-10-31T21:46:33.857Z,17.83
2022-10-31T21:49:03.776Z,15.23
2022-10-31T21:51:35.577Z,12.77
2022-10-31T21:54:03.523Z,14.97
2022-10-31T21:56:31.128Z,8.83
2022-10-31T21:58:59.362Z,9.83
2022-10-31T22:01:29.192Z,13.07
2022-10-31T22:03:57.982Z,12.67
2022-10-31T22:06:26.955Z,6.73
2022-10-31T22:08:54.937Z,7.57
2022-10-31T22:11:22.549Z,7.20
2022-10-31T22:13:50.752Z,7.80
2022-10-31T22:16:22.262Z,6.80
2022-10-31T22:18:54.744Z,8.87
2022-10-31T22:21:25.656Z,7.10
2022-10-31T22:24:01.998Z,4.63
2022-10-31T22:26:33.579Z,9.33
2022-10-31T22:29:05.770Z,4.17
2022-10-31T22:31:37.263Z,6.27
2022-10-31T22:34:04.543Z,4.70
2022-10-31T22:36:32.448Z,6.60
2022-10-31T22:39:00.041Z,3.70
2022-10-31T22:41:31.338Z,8.67
2022-10-31T22:44:00.107Z,10.27
2022-10-31T22:46:37.147Z,6.00
2022-10-31T22:49:12.289Z,5.60
2022-10-31T22:51:40.993Z,8.63
2022-10-31T22:54:14.137Z,5.57
2022-10-31T22:56:41.786Z,5.53
2022-10-31T22:59:13.977Z,5.07
2022-10-31T23:01:41.601Z,8.03
2022-10-31T23:04:09.312Z,6.10
2022-10-31T23:06:37.692Z,5.07
2022-10-31T23:09:07.810Z,6.50
2022-10-31T23:11:39.202Z,5.17
2022-10-31T23:14:14.704Z,6.20
2022-10-31T23:16:54.979Z,3.40
2022-10-31T23:19:30.365Z,4.43
2022-10-31T23:22:02.920Z,3.57
2022-10-31T23:24:39.628Z,4.50
2022-10-31T23:27:13.995Z,2.70
2022-10-31T23:29:52.906Z,7.77
2022-10-31T23:32:27.251Z,6.70
2022-10-31T23:34:58.466Z,4.10
2022-10-31T23:37:29.954Z,4.37
2022-10-31T23:39:58.076Z,3.90
2022-10-31T23:42:27.170Z,7.27
2022-10-31T23:44:55.132Z,5.10
2022-10-31T23:47:23.379Z,2.50
2022-10-31T23:49:51.348Z,6.87
2022-10-31T23:52:18.608Z,3.80
2022-10-31T23:54:45.973Z,4.13
2022-10-31T23:57:15.846Z,5.37
2022-10-31T23:59:43.460Z,4.90
